Terminal Aerodrome Forecast
Issued by NWS

Home | Current Version | Previous Version | Text Only | Print | Product List | Glossary On
Versions: 1 2 3 4 5 6 7 8 9 10 11 12 13 14 15 16 17 18 19 20 21 22 23 24
000
FTUS41 KBGM 301121
TAFITH
TAF
KITH 301121Z 3012/0112 16010KT P6SM -SHRA SCT025 OVC040
      TEMPO 3015/3019 4SM -SHRA BR OVC030
     FM301900 17012G25KT 6SM -SHRA SCT025 OVC040
      TEMPO 3020/3024 4SM -TSRA OVC040CB
     FM010400 17007KT P6SM OVC050
     FM010900 16005KT P6SM OVC025=

USA.gov is the U.S. government's official web portal to all federal, state and local government web resources and services.